createdAt,value
2024-02-09T00:00:26.403Z,40.10
2024-02-09T00:02:53.678Z,40.10
2024-02-09T00:05:20.819Z,40.10
2024-02-09T00:07:50.461Z,40.10
2024-02-09T00:10:21.272Z,40.10
2024-02-09T00:12:54.825Z,40.20
2024-02-09T00:15:21.988Z,40.20
2024-02-09T00:17:49.486Z,40.20
2024-02-09T00:20:16.751Z,40.30
2024-02-09T00:22:45.320Z,40.30
2024-02-09T00:25:12.573Z,40.30
2024-02-09T00:27:40.231Z,40.40
2024-02-09T00:30:08.114Z,40.50
2024-02-09T00:32:35.792Z,40.50
2024-02-09T00:35:03.281Z,40.50
2024-02-09T00:37:30.998Z,40.50
2024-02-09T00:39:58.228Z,40.50
2024-02-09T00:42:25.469Z,40.50
2024-02-09T00:44:52.551Z,40.50
2024-02-09T00:47:19.624Z,40.40
2024-02-09T00:49:47.448Z,40.50
2024-02-09T00:52:16.526Z,40.40
2024-02-09T00:54:43.734Z,40.50
2024-02-09T00:57:10.813Z,40.50
2024-02-09T00:59:40.884Z,40.40
2024-02-09T01:02:11.104Z,40.40
2024-02-09T01:04:39.252Z,40.30
2024-02-09T01:07:10.951Z,40.30
2024-02-09T01:09:38.746Z,40.30
2024-02-09T01:12:09.344Z,40.30
2024-02-09T01:14:56.245Z,40.20
2024-02-09T01:17:41.900Z,40.20
2024-02-09T01:20:28.048Z,40.10
2024-02-09T01:23:13.632Z,40.20
2024-02-09T01:25:59.214Z,40.30
2024-02-09T01:28:44.989Z,40.50
2024-02-09T01:31:30.674Z,40.70
2024-02-09T01:34:16.340Z,40.80
2024-02-09T01:37:01.788Z,41.70
2024-02-09T01:39:48.031Z,41.10
2024-02-09T01:42:33.737Z,41.10
2024-02-09T01:45:19.395Z,41.20
2024-02-09T01:48:05.162Z,41.20
2024-02-09T01:50:50.787Z,41.20
2024-02-09T01:53:36.590Z,41.20
2024-02-09T01:56:22.640Z,41.10
2024-02-09T01:59:08.295Z,41.10
2024-02-09T02:01:53.956Z,41.10
2024-02-09T02:04:39.733Z,41.10
2024-02-09T02:07:25.916Z,41.00
2024-02-09T02:10:11.844Z,41.00
2024-02-09T02:12:57.400Z,40.90
2024-02-09T02:15:43.098Z,40.90
2024-02-09T02:18:28.850Z,40.80
2024-02-09T02:21:14.982Z,40.80
2024-02-09T02:24:02.180Z,40.90
2024-02-09T02:26:48.298Z,40.80
2024-02-09T02:29:33.924Z,40.80
2024-02-09T02:32:19.777Z,40.80
2024-02-09T02:35:05.436Z,40.90
2024-02-09T02:37:51.439Z,40.90
2024-02-09T02:40:37.183Z,40.80
2024-02-09T02:43:04.247Z,40.90
2024-02-09T02:45:31.220Z,41.60
2024-02-09T02:48:16.733Z,40.90
2024-02-09T02:51:02.519Z,41.00
2024-02-09T02:53:48.063Z,41.10
2024-02-09T02:56:33.668Z,41.20
2024-02-09T02:59:19.483Z,41.30
2024-02-09T03:02:05.285Z,41.30
2024-02-09T03:04:33.899Z,41.40
2024-02-09T03:07:23.426Z,41.40
2024-02-09T03:09:48.134Z,41.40
2024-02-09T03:12:15.412Z,41.40
2024-02-09T03:14:45.494Z,41.40
2024-02-09T03:17:12.634Z,41.40
2024-02-09T03:19:39.698Z,41.40
2024-02-09T03:22:06.687Z,41.40
2024-02-09T03:24:33.683Z,41.50
2024-02-09T03:27:00.599Z,41.40
2024-02-09T03:29:31.857Z,41.40
2024-02-09T03:31:58.885Z,41.30
2024-02-09T03:34:27.284Z,41.30
2024-02-09T03:36:57.141Z,41.10
2024-02-09T03:39:24.319Z,41.00
2024-02-09T03:41:51.331Z,40.90
2024-02-09T03:44:18.286Z,40.70
2024-02-09T03:46:46.154Z,40.60
2024-02-09T03:49:13.723Z,40.40
2024-02-09T03:51:40.885Z,40.30
2024-02-09T03:54:08.010Z,40.20
2024-02-09T03:56:34.971Z,40.20
2024-02-09T03:59:01.950Z,40.10
2024-02-09T04:01:29.315Z,40.10
2024-02-09T04:03:56.313Z,40.10
2024-02-09T04:06:25.831Z,40.20
2024-02-09T04:08:52.907Z,40.20
2024-02-09T04:11:26.323Z,40.20
2024-02-09T04:13:53.396Z,40.10
2024-02-09T04:16:23.440Z,40.00
2024-02-09T04:18:50.471Z,40.00
2024-02-09T04:21:17.514Z,39.90
2024-02-09T04:23:44.691Z,39.70
2024-02-09T04:26:11.701Z,39.60
2024-02-09T04:28:38.640Z,39.50
2024-02-09T04:31:05.598Z,39.50
2024-02-09T04:33:32.699Z,39.50
2024-02-09T04:36:00.265Z,39.60
2024-02-09T04:38:27.469Z,39.60
2024-02-09T04:40:57.167Z,39.60
2024-02-09T04:43:25.372Z,39.70
2024-02-09T04:45:52.553Z,39.70
2024-02-09T04:48:19.752Z,39.70
2024-02-09T04:50:48.280Z,39.70
2024-02-09T04:53:16.937Z,39.70
2024-02-09T04:55:44.099Z,39.70
2024-02-09T04:58:11.272Z,39.70
2024-02-09T05:00:38.352Z,39.60
2024-02-09T05:03:05.720Z,39.60
2024-02-09T05:05:34.304Z,39.50
2024-02-09T05:08:01.729Z,39.50
2024-02-09T05:10:29.050Z,39.40
2024-02-09T05:13:03.584Z,39.40
2024-02-09T05:15:31.017Z,39.50
2024-02-09T05:17:58.054Z,39.50
2024-02-09T05:20:25.079Z,39.60
2024-02-09T05:22:52.036Z,39.60
2024-02-09T05:25:21.956Z,39.80
2024-02-09T05:27:49.138Z,39.90
2024-02-09T05:30:16.217Z,40.00
2024-02-09T05:32:43.631Z,40.00
2024-02-09T05:35:10.870Z,40.10
2024-02-09T05:37:39.424Z,40.10
2024-02-09T05:40:06.938Z,40.10
2024-02-09T05:42:33.955Z,40.00
2024-02-09T05:45:01.117Z,40.10
2024-02-09T05:47:31.701Z,40.00
2024-02-09T05:49:59.859Z,40.00
2024-02-09T05:52:27.409Z,40.00
2024-02-09T05:54:54.575Z,40.00
2024-02-09T05:57:21.478Z,40.00
2024-02-09T05:59:48.507Z,40.00
2024-02-09T06:02:15.414Z,40.10
2024-02-09T06:04:42.460Z,40.30
2024-02-09T06:07:09.687Z,40.40
2024-02-09T06:09:37.638Z,40.50
2024-02-09T06:12:05.303Z,40.70
2024-02-09T06:14:32.548Z,40.70
2024-02-09T06:16:59.459Z,40.80
2024-02-09T06:19:26.553Z,40.80
2024-02-09T06:21:53.609Z,40.70
2024-02-09T06:24:25.972Z,40.60
2024-02-09T06:26:53.111Z,40.50
2024-02-09T06:29:20.038Z,40.40
2024-02-09T06:31:47.067Z,40.30
2024-02-09T06:34:14.343Z,40.20
2024-02-09T06:36:41.482Z,40.10
2024-02-09T06:39:10.426Z,40.20
2024-02-09T06:41:37.415Z,40.20
2024-02-09T06:44:04.478Z,40.20
2024-02-09T06:46:31.422Z,40.20
2024-02-09T06:48:59.176Z,40.30
2024-02-09T06:51:26.610Z,40.50
2024-02-09T06:53:56.136Z,40.50
2024-02-09T06:56:23.599Z,40.60
2024-02-09T06:58:55.916Z,40.60
2024-02-09T07:01:23.033Z,40.60
2024-02-09T07:03:50.864Z,40.60
2024-02-09T07:06:18.150Z,40.60
2024-02-09T07:08:52.266Z,40.50
2024-02-09T07:11:19.489Z,40.40
2024-02-09T07:13:47.469Z,40.30
2024-02-09T07:16:14.488Z,40.20
2024-02-09T07:18:43.156Z,40.20
2024-02-09T07:21:17.322Z,40.10
2024-02-09T07:23:51.047Z,40.10
2024-02-09T07:26:18.715Z,40.10
2024-02-09T07:28:45.682Z,40.10
2024-02-09T07:31:15.592Z,40.20
2024-02-09T07:33:42.665Z,40.20
2024-02-09T07:36:11.459Z,40.30
2024-02-09T07:38:38.379Z,40.30
2024-02-09T07:41:05.608Z,40.30
2024-02-09T07:43:32.814Z,40.20
2024-02-09T07:45:59.880Z,40.30
2024-02-09T07:48:29.866Z,40.20
2024-02-09T07:50:58.131Z,40.10
2024-02-09T07:53:25.449Z,40.00
2024-02-09T07:55:53.130Z,40.00
2024-02-09T07:58:20.133Z,39.90
2024-02-09T08:00:47.089Z,39.90
2024-02-09T08:03:14.687Z,39.80
2024-02-09T08:05:41.707Z,39.90
2024-02-09T08:08:11.179Z,39.90
2024-02-09T08:10:38.223Z,39.90
2024-02-09T08:13:10.035Z,40.00
2024-02-09T08:15:37.129Z,40.10
2024-02-09T08:18:04.199Z,40.10
2024-02-09T08:20:37.985Z,40.10
2024-02-09T08:23:05.122Z,40.20
2024-02-09T08:25:32.192Z,40.30
2024-02-09T08:28:01.628Z,40.40
2024-02-09T08:30:31.526Z,40.60
2024-02-09T08:32:58.535Z,40.70
2024-02-09T08:35:27.497Z,40.70
2024-02-09T08:37:54.613Z,40.70
2024-02-09T08:40:21.758Z,40.80
2024-02-09T08:42:50.081Z,40.80
2024-02-09T08:45:17.299Z,40.90
2024-02-09T08:47:44.551Z,41.00
2024-02-09T08:50:11.595Z,41.10
2024-02-09T08:52:38.657Z,41.10
2024-02-09T08:55:06.013Z,41.20
2024-02-09T08:57:33.225Z,41.30
2024-02-09T09:00:00.272Z,41.40
2024-02-09T09:02:27.490Z,41.50
2024-02-09T09:04:55.381Z,41.60
2024-02-09T09:07:22.327Z,41.70
2024-02-09T09:09:49.237Z,41.70
2024-02-09T09:12:16.157Z,41.60
2024-02-09T09:14:43.387Z,41.70
2024-02-09T09:17:18.113Z,41.60
2024-02-09T09:19:51.759Z,41.60
2024-02-09T09:22:19.830Z,41.40
2024-02-09T09:24:47.851Z,41.40
2024-02-09T09:27:14.951Z,41.40
2024-02-09T09:29:42.216Z,41.50
2024-02-09T09:32:09.229Z,41.60
2024-02-09T09:34:36.388Z,41.90
2024-02-09T09:37:07.743Z,42.10
2024-02-09T09:39:34.738Z,42.20
2024-02-09T09:42:01.948Z,42.30
2024-02-09T09:44:30.156Z,42.50
2024-02-09T09:46:58.534Z,42.60
2024-02-09T09:49:27.976Z,42.70
2024-02-09T09:51:59.273Z,42.80
2024-02-09T09:54:29.424Z,42.80
2024-02-09T09:56:56.704Z,42.90
2024-02-09T09:59:24.366Z,42.90
2024-02-09T10:01:52.053Z,42.90
2024-02-09T10:04:19.781Z,42.90
2024-02-09T10:06:47.208Z,43.00
2024-02-09T10:09:14.682Z,43.00
2024-02-09T10:11:42.701Z,43.00
2024-02-09T10:14:10.706Z,43.10
2024-02-09T10:16:37.792Z,43.10
2024-02-09T10:19:08.655Z,43.10
2024-02-09T10:21:37.710Z,43.10
2024-02-09T10:24:07.610Z,43.00
2024-02-09T10:26:34.589Z,43.00
2024-02-09T10:29:01.626Z,43.00
2024-02-09T10:31:30.235Z,42.80
2024-02-09T10:34:00.191Z,42.70
2024-02-09T10:36:28.606Z,42.50
2024-02-09T10:38:59.233Z,42.40
2024-02-09T10:41:30.492Z,42.40
2024-02-09T10:43:59.018Z,42.20
2024-02-09T10:46:28.111Z,42.10
2024-02-09T10:48:58.189Z,42.00
2024-02-09T10:51:29.304Z,41.90
2024-02-09T10:53:57.548Z,41.70
2024-02-09T10:56:28.357Z,41.70
2024-02-09T10:58:56.976Z,41.60
2024-02-09T11:01:24.048Z,41.50
2024-02-09T11:03:51.181Z,41.40
2024-02-09T11:06:18.370Z,41.30
2024-02-09T11:08:50.850Z,41.20
2024-02-09T11:11:17.858Z,41.00
2024-02-09T11:13:45.059Z,41.00
2024-02-09T11:16:12.096Z,40.90
2024-02-09T11:18:39.260Z,40.90
2024-02-09T11:21:07.798Z,40.90
2024-02-09T11:23:41.605Z,40.80
2024-02-09T11:26:12.516Z,40.70
2024-02-09T11:28:39.655Z,40.60
2024-02-09T11:31:08.683Z,40.60
2024-02-09T11:33:35.746Z,40.70
2024-02-09T11:36:03.157Z,40.70
2024-02-09T11:38:30.432Z,40.70
2024-02-09T11:40:59.934Z,40.70
2024-02-09T11:43:28.232Z,40.80
2024-02-09T11:45:56.082Z,40.90
2024-02-09T11:48:24.453Z,40.90
2024-02-09T11:50:54.506Z,40.90
2024-02-09T11:53:21.736Z,41.00
2024-02-09T11:55:48.945Z,41.20
2024-02-09T11:58:16.586Z,41.20
2024-02-09T12:00:44.866Z,42.00
2024-02-09T12:03:16.482Z,41.50
2024-02-09T12:05:45.437Z,41.70
2024-02-09T12:08:12.477Z,41.90
2024-02-09T12:10:39.541Z,42.10
2024-02-09T12:13:07.279Z,42.10
2024-02-09T12:15:39.359Z,42.20
2024-02-09T12:18:06.423Z,42.20
2024-02-09T12:20:34.164Z,42.00
2024-02-09T12:23:07.544Z,42.00
2024-02-09T12:25:39.591Z,41.90
2024-02-09T12:28:11.008Z,41.70
2024-02-09T12:30:38.528Z,41.50
2024-02-09T12:33:06.258Z,41.50
2024-02-09T12:35:33.390Z,41.40
2024-02-09T12:38:04.833Z,41.30
2024-02-09T12:40:33.185Z,41.20
2024-02-09T12:43:00.169Z,41.20
2024-02-09T12:45:32.528Z,41.00
2024-02-09T12:47:59.885Z,41.00
2024-02-09T12:50:30.184Z,41.00
2024-02-09T12:52:57.309Z,41.10
2024-02-09T12:55:27.028Z,41.10
2024-02-09T12:57:56.172Z,41.20
2024-02-09T13:00:24.891Z,42.00
2024-02-09T13:02:52.440Z,41.30
2024-02-09T13:05:20.017Z,41.30
2024-02-09T13:07:49.818Z,41.50
2024-02-09T13:10:17.260Z,42.20
2024-02-09T13:12:48.344Z,41.60
2024-02-09T13:15:16.461Z,41.60
2024-02-09T13:17:43.439Z,41.70
2024-02-09T13:20:15.196Z,41.60
2024-02-09T13:22:42.274Z,41.50
2024-02-09T13:25:15.501Z,41.50
2024-02-09T13:27:43.447Z,41.40
2024-02-09T13:30:10.834Z,41.40
2024-02-09T13:32:38.316Z,41.20
2024-02-09T13:35:12.482Z,41.20
2024-02-09T13:37:45.434Z,41.00
2024-02-09T13:40:16.721Z,40.80
2024-02-09T13:42:48.589Z,40.70
2024-02-09T13:45:15.928Z,40.70
2024-02-09T13:47:43.162Z,40.70
2024-02-09T13:50:12.229Z,40.80
2024-02-09T13:52:40.357Z,40.80
2024-02-09T13:55:08.208Z,40.90
2024-02-09T13:57:35.139Z,41.00
2024-02-09T14:00:08.947Z,41.10
2024-02-09T14:02:35.976Z,41.10
2024-02-09T14:05:03.421Z,41.20
2024-02-09T14:07:30.688Z,41.20
2024-02-09T14:09:57.703Z,41.20
2024-02-09T14:12:25.222Z,41.10
2024-02-09T14:14:52.173Z,40.90
2024-02-09T14:17:19.247Z,40.70
2024-02-09T14:19:46.329Z,40.60
2024-02-09T14:22:13.895Z,40.30
2024-02-09T14:24:40.905Z,40.20
2024-02-09T14:27:08.225Z,40.10
2024-02-09T14:29:35.183Z,40.00
2024-02-09T14:32:02.141Z,39.90
2024-02-09T14:34:29.866Z,39.90
2024-02-09T14:36:57.564Z,39.90
2024-02-09T14:39:24.548Z,39.80
2024-02-09T14:41:51.519Z,39.80
2024-02-09T14:44:18.528Z,39.80
2024-02-09T14:46:47.084Z,40.00
2024-02-09T14:49:14.337Z,40.00
2024-02-09T14:51:44.972Z,39.90
2024-02-09T14:54:12.537Z,40.00
2024-02-09T14:56:48.572Z,40.00
2024-02-09T14:59:22.769Z,40.70
2024-02-09T15:01:51.187Z,39.90
2024-02-09T15:04:18.418Z,39.80
2024-02-09T15:06:45.715Z,39.70
2024-02-09T15:09:12.779Z,39.60
2024-02-09T15:11:42.217Z,39.60
2024-02-09T15:14:10.762Z,39.50
2024-02-09T15:16:38.333Z,39.30
2024-02-09T15:19:05.812Z,39.20
2024-02-09T15:21:33.116Z,39.10
2024-02-09T15:24:00.885Z,39.00
2024-02-09T15:26:27.869Z,39.00
2024-02-09T15:28:57.819Z,39.10
2024-02-09T15:31:24.895Z,39.30
2024-02-09T15:33:52.203Z,39.50
2024-02-09T15:36:19.744Z,39.60
2024-02-09T15:38:49.209Z,39.80
2024-02-09T15:41:18.223Z,39.90
2024-02-09T15:43:45.230Z,40.10
2024-02-09T15:46:20.000Z,40.10
2024-02-09T15:48:48.824Z,40.30
2024-02-09T15:51:25.069Z,40.30
2024-02-09T15:53:55.276Z,40.20
2024-02-09T15:56:23.473Z,40.20
2024-02-09T15:58:50.920Z,40.10
2024-02-09T16:01:19.097Z,40.00
2024-02-09T16:03:49.329Z,40.00
2024-02-09T16:06:19.378Z,39.90
2024-02-09T16:08:48.493Z,39.90
2024-02-09T16:11:15.609Z,39.80
2024-02-09T16:13:42.792Z,39.80
2024-02-09T16:16:13.799Z,39.90
2024-02-09T16:18:43.682Z,39.80
2024-02-09T16:21:11.275Z,39.80
2024-02-09T16:23:38.265Z,39.90
2024-02-09T16:26:06.184Z,39.80
2024-02-09T16:28:34.422Z,40.00
2024-02-09T16:31:27.400Z,40.10
2024-02-09T16:33:54.610Z,40.10
2024-02-09T16:36:25.546Z,40.20
2024-02-09T16:38:53.272Z,40.30
2024-02-09T16:41:20.574Z,40.50
2024-02-09T16:43:49.818Z,40.50
2024-02-09T16:46:16.878Z,40.60
2024-02-09T16:48:47.611Z,40.60
2024-02-09T16:51:15.298Z,40.50
2024-02-09T16:53:42.374Z,40.50
2024-02-09T16:56:09.289Z,40.40
2024-02-09T16:58:37.044Z,40.30
2024-02-09T17:01:04.177Z,40.20
2024-02-09T17:03:31.128Z,40.10
2024-02-09T17:05:58.153Z,39.90
2024-02-09T17:08:25.287Z,39.70
2024-02-09T17:10:53.092Z,39.50
2024-02-09T17:13:20.079Z,39.50
2024-02-09T17:15:47.155Z,39.40
2024-02-09T17:18:14.355Z,39.40
2024-02-09T17:20:41.569Z,39.40
2024-02-09T17:23:10.374Z,39.40
2024-02-09T17:25:37.595Z,39.40
2024-02-09T17:28:06.206Z,39.40
2024-02-09T17:30:33.526Z,39.40
2024-02-09T17:33:00.742Z,39.50
2024-02-09T17:35:28.726Z,39.50
2024-02-09T17:37:56.796Z,39.60
2024-02-09T17:40:24.937Z,39.60
2024-02-09T17:42:52.295Z,39.50
2024-02-09T17:45:20.459Z,39.60
2024-02-09T17:47:54.406Z,39.50
2024-02-09T17:50:22.198Z,39.50
2024-02-09T17:52:49.415Z,39.40
2024-02-09T17:55:18.158Z,39.30
2024-02-09T17:57:50.783Z,39.40
2024-02-09T18:00:21.197Z,39.90
2024-02-09T18:02:52.483Z,39.60
2024-02-09T18:05:20.761Z,39.70
2024-02-09T18:07:47.955Z,39.80
2024-02-09T18:10:19.675Z,39.90
2024-02-09T18:12:50.656Z,40.00
2024-02-09T18:15:17.573Z,40.00
2024-02-09T18:17:47.624Z,40.00
2024-02-09T18:20:14.725Z,40.10
2024-02-09T18:22:44.516Z,40.20
2024-02-09T18:25:14.286Z,40.30
2024-02-09T18:27:48.013Z,40.30
2024-02-09T18:30:19.876Z,40.40
2024-02-09T18:32:50.888Z,40.50
2024-02-09T18:35:19.238Z,40.70
2024-02-09T18:37:46.237Z,40.70
2024-02-09T18:40:14.349Z,40.80
2024-02-09T18:42:41.935Z,41.60
2024-02-09T18:45:15.483Z,40.90
2024-02-09T18:47:42.515Z,40.90
2024-02-09T18:50:11.322Z,40.80
2024-02-09T18:52:42.086Z,40.70
2024-02-09T18:55:10.142Z,40.60
2024-02-09T18:57:37.333Z,40.50
2024-02-09T19:00:06.410Z,40.40
2024-02-09T19:02:34.138Z,40.30
2024-02-09T19:05:01.545Z,40.20
2024-02-09T19:07:30.721Z,40.00
2024-02-09T19:09:57.715Z,40.00
2024-02-09T19:12:24.625Z,40.00
2024-02-09T19:14:52.628Z,39.90
2024-02-09T19:17:19.669Z,39.90
2024-02-09T19:19:49.352Z,40.00
2024-02-09T19:22:16.330Z,40.00
2024-02-09T19:24:44.507Z,40.10
2024-02-09T19:27:13.977Z,40.30
2024-02-09T19:29:41.183Z,40.40
2024-02-09T19:32:08.238Z,40.40
2024-02-09T19:34:35.193Z,40.40
2024-02-09T19:37:02.162Z,40.30
2024-02-09T19:39:29.550Z,40.30
2024-02-09T19:41:56.705Z,40.10
2024-02-09T19:44:23.913Z,40.10
2024-02-09T19:46:51.768Z,40.00
2024-02-09T19:49:19.502Z,39.90
2024-02-09T19:51:49.026Z,39.70
2024-02-09T19:54:16.099Z,39.60
2024-02-09T19:56:45.353Z,39.60
2024-02-09T19:59:13.503Z,39.50
2024-02-09T20:01:40.498Z,39.50
2024-02-09T20:04:08.235Z,39.50
2024-02-09T20:06:36.058Z,39.50
2024-02-09T20:09:03.725Z,39.50
2024-02-09T20:11:31.046Z,39.60
2024-02-09T20:13:57.987Z,40.30
2024-02-09T20:16:24.903Z,39.60
2024-02-09T20:18:53.148Z,39.60
2024-02-09T20:21:20.160Z,39.50
2024-02-09T20:23:48.362Z,39.60
2024-02-09T20:26:18.223Z,39.60
2024-02-09T20:28:45.884Z,39.60
2024-02-09T20:31:13.522Z,39.80
2024-02-09T20:33:41.733Z,39.90
2024-02-09T20:36:10.847Z,40.20
2024-02-09T20:38:38.208Z,40.30
2024-02-09T20:41:06.112Z,40.40
2024-02-09T20:43:33.374Z,40.50
2024-02-09T20:46:01.519Z,40.60
2024-02-09T20:48:28.706Z,40.60
2024-02-09T20:50:55.694Z,40.60
2024-02-09T20:53:27.570Z,40.70
2024-02-09T20:55:54.794Z,40.70
2024-02-09T20:58:27.633Z,40.80
2024-02-09T21:00:56.957Z,40.90
2024-02-09T21:03:24.054Z,41.00
2024-02-09T21:05:53.325Z,41.00
2024-02-09T21:08:20.669Z,41.10
2024-02-09T21:10:48.294Z,41.10
2024-02-09T21:13:15.980Z,41.00
2024-02-09T21:15:44.776Z,41.10
2024-02-09T21:18:11.890Z,41.00
2024-02-09T21:20:39.763Z,41.00
2024-02-09T21:23:08.655Z,41.00
2024-02-09T21:25:35.642Z,41.00
2024-02-09T21:28:02.923Z,41.00
2024-02-09T21:30:30.306Z,41.20
2024-02-09T21:33:01.435Z,41.20
2024-02-09T21:35:31.050Z,41.30
2024-02-09T21:37:59.084Z,41.40
2024-02-09T21:40:30.409Z,41.50
2024-02-09T21:42:59.813Z,41.40
2024-02-09T21:45:26.854Z,41.40
2024-02-09T21:47:54.590Z,41.40
2024-02-09T21:50:22.096Z,41.40
2024-02-09T21:52:51.422Z,41.40
2024-02-09T21:55:19.949Z,41.40
2024-02-09T21:57:47.819Z,41.50
2024-02-09T22:00:15.516Z,41.60
2024-02-09T22:02:42.716Z,41.60
2024-02-09T22:05:10.660Z,42.30
2024-02-09T22:07:38.303Z,41.70
2024-02-09T22:10:05.597Z,41.70
2024-02-09T22:12:33.205Z,41.80
2024-02-09T22:15:00.356Z,41.90
2024-02-09T22:17:31.832Z,42.00
2024-02-09T22:19:59.113Z,42.20
2024-02-09T22:22:27.112Z,42.30
2024-02-09T22:24:54.098Z,42.30
2024-02-09T22:27:21.053Z,42.30
2024-02-09T22:29:50.660Z,42.30
2024-02-09T22:32:17.761Z,42.30
2024-02-09T22:34:45.507Z,42.30
2024-02-09T22:37:13.160Z,42.30
2024-02-09T22:39:42.373Z,42.40
2024-02-09T22:42:10.662Z,42.40
2024-02-09T22:44:42.827Z,42.40
2024-02-09T22:47:10.286Z,42.50
2024-02-09T22:49:37.468Z,42.50
2024-02-09T22:52:05.471Z,42.30
2024-02-09T22:54:32.676Z,42.20
2024-02-09T22:56:59.610Z,42.20
2024-02-09T22:59:27.281Z,42.20
2024-02-09T23:01:54.360Z,42.20
2024-02-09T23:04:26.267Z,42.90
2024-02-09T23:06:53.282Z,42.10
2024-02-09T23:09:20.392Z,42.10
2024-02-09T23:11:47.373Z,42.00
2024-02-09T23:14:16.818Z,42.00
2024-02-09T23:16:46.016Z,42.00
2024-02-09T23:19:19.973Z,41.90
2024-02-09T23:21:50.685Z,41.90
2024-02-09T23:24:22.034Z,41.90
2024-02-09T23:26:58.264Z,42.00
2024-02-09T23:29:25.816Z,42.00
2024-02-09T23:31:59.867Z,42.10
2024-02-09T23:34:27.149Z,42.00
2024-02-09T23:36:54.528Z,42.10
2024-02-09T23:39:23.105Z,42.00
2024-02-09T23:41:50.396Z,42.00
2024-02-09T23:44:24.346Z,42.00
2024-02-09T23:46:51.841Z,42.00
2024-02-09T23:49:19.856Z,42.10
2024-02-09T23:51:49.960Z,42.20
2024-02-09T23:54:17.928Z,42.30
2024-02-09T23:56:46.089Z,42.30
2024-02-09T23:59:13.344Z,42.30
